sensor_id;sensor_type;location;lat;lon;timestamp;P1;durP1;ratioP1;P2;durP2;ratioP2
39128;SDS011;24864;49.940;19.770;2022-12-07T00:01:18;22.95;;;15.07;;
39128;SDS011;24864;49.940;19.770;2022-12-07T00:03:49;21.25;;;15.55;;
39128;SDS011;24864;49.940;19.770;2022-12-07T00:06:19;29.75;;;17.08;;
39128;SDS011;24864;49.940;19.770;2022-12-07T00:08:47;22.88;;;16.27;;
39128;SDS011;24864;49.940;19.770;2022-12-07T00:11:17;24.08;;;16.15;;
39128;SDS011;24864;49.940;19.770;2022-12-07T00:13:50;25.73;;;15.18;;
39128;SDS011;24864;49.940;19.770;2022-12-07T00:16:23;31.23;;;16.92;;
39128;SDS011;24864;49.940;19.770;2022-12-07T00:18:52;25.30;;;17.13;;
39128;SDS011;24864;49.940;19.770;2022-12-07T00:21:22;29.27;;;17.60;;
39128;SDS011;24864;49.940;19.770;2022-12-07T00:23:51;29.88;;;18.58;;
39128;SDS011;24864;49.940;19.770;2022-12-07T00:26:20;33.78;;;19.58;;
39128;SDS011;24864;49.940;19.770;2022-12-07T00:28:50;31.05;;;17.98;;
39128;SDS011;24864;49.940;19.770;2022-12-07T00:31:20;31.25;;;18.23;;
39128;SDS011;24864;49.940;19.770;2022-12-07T00:33:51;30.83;;;17.42;;
39128;SDS011;24864;49.940;19.770;2022-12-07T00:36:20;30.98;;;18.25;;
39128;SDS011;24864;49.940;19.770;2022-12-07T00:38:53;31.83;;;18.60;;
39128;SDS011;24864;49.940;19.770;2022-12-07T00:41:22;30.23;;;17.42;;
39128;SDS011;24864;49.940;19.770;2022-12-07T00:43:52;33.22;;;18.55;;
39128;SDS011;24864;49.940;19.770;2022-12-07T00:46:21;33.83;;;19.20;;
39128;SDS011;24864;49.940;19.770;2022-12-07T00:48:52;31.23;;;18.42;;
39128;SDS011;24864;49.940;19.770;2022-12-07T00:51:21;28.02;;;17.98;;
39128;SDS011;24864;49.940;19.770;2022-12-07T00:53:51;34.10;;;19.33;;
39128;SDS011;24864;49.940;19.770;2022-12-07T00:56:20;29.35;;;17.73;;
39128;SDS011;24864;49.940;19.770;2022-12-07T00:58:50;31.52;;;17.85;;
39128;SDS011;24864;49.940;19.770;2022-12-07T01:01:25;32.90;;;19.35;;
39128;SDS011;24864;49.940;19.770;2022-12-07T01:03:54;29.73;;;19.63;;
39128;SDS011;24864;49.940;19.770;2022-12-07T01:06:23;33.75;;;19.52;;
39128;SDS011;24864;49.940;19.770;2022-12-07T01:08:53;25.92;;;16.73;;
39128;SDS011;24864;49.940;19.770;2022-12-07T01:11:22;27.02;;;17.90;;
39128;SDS011;24864;49.940;19.770;2022-12-07T01:13:52;33.42;;;19.95;;
39128;SDS011;24864;49.940;19.770;2022-12-07T01:16:22;39.20;;;21.83;;
39128;SDS011;24864;49.940;19.770;2022-12-07T01:18:54;38.42;;;21.17;;
39128;SDS011;24864;49.940;19.770;2022-12-07T01:21:24;33.13;;;20.47;;
39128;SDS011;24864;49.940;19.770;2022-12-07T01:23:53;34.22;;;19.13;;
39128;SDS011;24864;49.940;19.770;2022-12-07T01:26:22;40.85;;;21.80;;
39128;SDS011;24864;49.940;19.770;2022-12-07T01:28:51;32.28;;;19.52;;
39128;SDS011;24864;49.940;19.770;2022-12-07T01:31:22;33.53;;;20.98;;
39128;SDS011;24864;49.940;19.770;2022-12-07T01:33:55;34.27;;;20.63;;
39128;SDS011;24864;49.940;19.770;2022-12-07T01:38:55;33.72;;;20.17;;
39128;SDS011;24864;49.940;19.770;2022-12-07T01:41:25;35.95;;;19.92;;
39128;SDS011;24864;49.940;19.770;2022-12-07T01:44:08;30.50;;;19.58;;
39128;SDS011;24864;49.940;19.770;2022-12-07T01:46:44;32.83;;;18.98;;
39128;SDS011;24864;49.940;19.770;2022-12-07T01:49:16;34.25;;;20.42;;
39128;SDS011;24864;49.940;19.770;2022-12-07T01:51:48;32.63;;;19.77;;
39128;SDS011;24864;49.940;19.770;2022-12-07T01:54:18;32.92;;;19.63;;
39128;SDS011;24864;49.940;19.770;2022-12-07T01:56:50;30.75;;;18.25;;
39128;SDS011;24864;49.940;19.770;2022-12-07T01:59:21;36.08;;;20.88;;
39128;SDS011;24864;49.940;19.770;2022-12-07T02:01:54;35.77;;;20.33;;
39128;SDS011;24864;49.940;19.770;2022-12-07T02:04:23;36.35;;;18.70;;
39128;SDS011;24864;49.940;19.770;2022-12-07T02:06:52;29.70;;;18.33;;
39128;SDS011;24864;49.940;19.770;2022-12-07T02:09:22;30.30;;;18.92;;
39128;SDS011;24864;49.940;19.770;2022-12-07T02:11:50;31.55;;;18.60;;
39128;SDS011;24864;49.940;19.770;2022-12-07T02:14:18;28.35;;;18.92;;
39128;SDS011;24864;49.940;19.770;2022-12-07T02:16:49;26.95;;;17.88;;
39128;SDS011;24864;49.940;19.770;2022-12-07T02:22:40;31.23;;;19.30;;
39128;SDS011;24864;49.940;19.770;2022-12-07T02:25:26;31.33;;;19.88;;
39128;SDS011;24864;49.940;19.770;2022-12-07T02:28:04;32.50;;;18.92;;
39128;SDS011;24864;49.940;19.770;2022-12-07T02:30:36;37.17;;;20.77;;
39128;SDS011;24864;49.940;19.770;2022-12-07T02:33:11;34.85;;;20.77;;
39128;SDS011;24864;49.940;19.770;2022-12-07T02:35:44;36.75;;;20.45;;
39128;SDS011;24864;49.940;19.770;2022-12-07T02:38:19;34.65;;;19.30;;
39128;SDS011;24864;49.940;19.770;2022-12-07T02:40:54;34.58;;;20.80;;
39128;SDS011;24864;49.940;19.770;2022-12-07T02:43:25;36.58;;;19.90;;
39128;SDS011;24864;49.940;19.770;2022-12-07T02:46:00;73.20;;;22.33;;
39128;SDS011;24864;49.940;19.770;2022-12-07T02:48:31;75.38;;;24.10;;
39128;SDS011;24864;49.940;19.770;2022-12-07T02:51:01;47.95;;;25.33;;
39128;SDS011;24864;49.940;19.770;2022-12-07T02:53:33;47.00;;;26.35;;
39128;SDS011;24864;49.940;19.770;2022-12-07T02:56:03;57.50;;;31.23;;
39128;SDS011;24864;49.940;19.770;2022-12-07T02:58:39;56.53;;;30.33;;
39128;SDS011;24864;49.940;19.770;2022-12-07T03:01:22;42.40;;;25.02;;
39128;SDS011;24864;49.940;19.770;2022-12-07T03:03:58;56.78;;;29.95;;
39128;SDS011;24864;49.940;19.770;2022-12-07T03:06:39;60.88;;;31.73;;
39128;SDS011;24864;49.940;19.770;2022-12-07T03:09:14;55.20;;;30.08;;
39128;SDS011;24864;49.940;19.770;2022-12-07T03:11:50;51.63;;;28.48;;
39128;SDS011;24864;49.940;19.770;2022-12-07T03:14:27;60.45;;;31.25;;
39128;SDS011;24864;49.940;19.770;2022-12-07T03:17:02;75.63;;;39.97;;
39128;SDS011;24864;49.940;19.770;2022-12-07T03:19:38;64.78;;;33.80;;
39128;SDS011;24864;49.940;19.770;2022-12-07T03:22:08;63.30;;;31.17;;
39128;SDS011;24864;49.940;19.770;2022-12-07T03:24:39;46.50;;;28.00;;
39128;SDS011;24864;49.940;19.770;2022-12-07T03:27:11;58.15;;;29.70;;
39128;SDS011;24864;49.940;19.770;2022-12-07T03:29:44;51.92;;;26.83;;
39128;SDS011;24864;49.940;19.770;2022-12-07T03:32:19;34.92;;;20.50;;
39128;SDS011;24864;49.940;19.770;2022-12-07T03:34:51;32.10;;;20.00;;
39128;SDS011;24864;49.940;19.770;2022-12-07T03:37:24;45.83;;;26.45;;
39128;SDS011;24864;49.940;19.770;2022-12-07T03:39:57;47.83;;;28.02;;
39128;SDS011;24864;49.940;19.770;2022-12-07T03:42:32;48.70;;;28.58;;
39128;SDS011;24864;49.940;19.770;2022-12-07T03:45:00;41.15;;;23.08;;
39128;SDS011;24864;49.940;19.770;2022-12-07T03:47:32;33.50;;;19.75;;
39128;SDS011;24864;49.940;19.770;2022-12-07T03:50:04;28.60;;;18.52;;
39128;SDS011;24864;49.940;19.770;2022-12-07T03:52:37;33.42;;;18.75;;
39128;SDS011;24864;49.940;19.770;2022-12-07T03:55:11;32.80;;;19.55;;
39128;SDS011;24864;49.940;19.770;2022-12-07T03:57:44;36.25;;;22.40;;
39128;SDS011;24864;49.940;19.770;2022-12-07T04:00:17;40.47;;;22.92;;
39128;SDS011;24864;49.940;19.770;2022-12-07T04:02:47;47.17;;;24.58;;
39128;SDS011;24864;49.940;19.770;2022-12-07T04:05:19;50.38;;;25.52;;
39128;SDS011;24864;49.940;19.770;2022-12-07T04:07:47;36.17;;;22.33;;
39128;SDS011;24864;49.940;19.770;2022-12-07T04:10:15;37.28;;;21.83;;
39128;SDS011;24864;49.940;19.770;2022-12-07T04:12:44;36.95;;;22.13;;
39128;SDS011;24864;49.940;19.770;2022-12-07T04:15:12;35.72;;;20.13;;
39128;SDS011;24864;49.940;19.770;2022-12-07T04:17:40;38.85;;;22.17;;
39128;SDS011;24864;49.940;19.770;2022-12-07T04:20:10;35.03;;;21.88;;
39128;SDS011;24864;49.940;19.770;2022-12-07T04:22:39;30.25;;;19.13;;
39128;SDS011;24864;49.940;19.770;2022-12-07T04:25:07;31.02;;;18.85;;
39128;SDS011;24864;49.940;19.770;2022-12-07T04:27:36;29.35;;;18.55;;
39128;SDS011;24864;49.940;19.770;2022-12-07T04:30:04;31.15;;;19.35;;
39128;SDS011;24864;49.940;19.770;2022-12-07T04:32:33;27.75;;;17.83;;
39128;SDS011;24864;49.940;19.770;2022-12-07T04:35:01;27.33;;;17.30;;
39128;SDS011;24864;49.940;19.770;2022-12-07T04:37:33;23.88;;;16.33;;
39128;SDS011;24864;49.940;19.770;2022-12-07T04:40:02;21.85;;;14.98;;
39128;SDS011;24864;49.940;19.770;2022-12-07T04:42:30;23.02;;;15.82;;
39128;SDS011;24864;49.940;19.770;2022-12-07T04:44:58;22.05;;;15.60;;
39128;SDS011;24864;49.940;19.770;2022-12-07T04:47:26;24.95;;;15.88;;
39128;SDS011;24864;49.940;19.770;2022-12-07T04:49:54;22.10;;;15.55;;
39128;SDS011;24864;49.940;19.770;2022-12-07T04:52:22;21.05;;;14.15;;
39128;SDS011;24864;49.940;19.770;2022-12-07T04:54:52;19.15;;;12.20;;
39128;SDS011;24864;49.940;19.770;2022-12-07T04:57:19;17.27;;;13.25;;
39128;SDS011;24864;49.940;19.770;2022-12-07T04:59:47;16.35;;;12.63;;
39128;SDS011;24864;49.940;19.770;2022-12-07T05:02:15;16.45;;;11.90;;
39128;SDS011;24864;49.940;19.770;2022-12-07T05:04:43;17.15;;;13.48;;
39128;SDS011;24864;49.940;19.770;2022-12-07T05:07:11;16.75;;;11.50;;
39128;SDS011;24864;49.940;19.770;2022-12-07T05:09:39;17.77;;;13.23;;
39128;SDS011;24864;49.940;19.770;2022-12-07T05:12:09;18.52;;;10.80;;
39128;SDS011;24864;49.940;19.770;2022-12-07T05:14:37;17.38;;;12.93;;
39128;SDS011;24864;49.940;19.770;2022-12-07T05:17:04;14.98;;;11.88;;
39128;SDS011;24864;49.940;19.770;2022-12-07T05:19:35;21.58;;;14.88;;
39128;SDS011;24864;49.940;19.770;2022-12-07T05:22:03;18.30;;;13.30;;
39128;SDS011;24864;49.940;19.770;2022-12-07T05:24:31;17.25;;;13.32;;
39128;SDS011;24864;49.940;19.770;2022-12-07T05:26:59;19.55;;;13.30;;
39128;SDS011;24864;49.940;19.770;2022-12-07T05:29:28;21.70;;;15.07;;
39128;SDS011;24864;49.940;19.770;2022-12-07T05:31:56;22.05;;;13.05;;
39128;SDS011;24864;49.940;19.770;2022-12-07T05:34:24;19.08;;;12.60;;
39128;SDS011;24864;49.940;19.770;2022-12-07T05:36:52;18.42;;;13.35;;
39128;SDS011;24864;49.940;19.770;2022-12-07T05:39:20;24.75;;;15.48;;
39128;SDS011;24864;49.940;19.770;2022-12-07T05:41:48;19.00;;;13.30;;
39128;SDS011;24864;49.940;19.770;2022-12-07T05:44:35;23.98;;;14.82;;
39128;SDS011;24864;49.940;19.770;2022-12-07T05:47:03;24.00;;;14.25;;
39128;SDS011;24864;49.940;19.770;2022-12-07T05:49:31;20.23;;;13.90;;
39128;SDS011;24864;49.940;19.770;2022-12-07T05:52:00;26.00;;;15.18;;
39128;SDS011;24864;49.940;19.770;2022-12-07T05:54:28;25.35;;;15.43;;
39128;SDS011;24864;49.940;19.770;2022-12-07T05:56:56;22.67;;;14.68;;
39128;SDS011;24864;49.940;19.770;2022-12-07T05:59:25;29.75;;;18.58;;
39128;SDS011;24864;49.940;19.770;2022-12-07T06:01:55;30.58;;;18.13;;
39128;SDS011;24864;49.940;19.770;2022-12-07T06:04:25;26.95;;;17.65;;
39128;SDS011;24864;49.940;19.770;2022-12-07T06:06:54;26.70;;;17.70;;
39128;SDS011;24864;49.940;19.770;2022-12-07T06:09:23;25.38;;;17.20;;
39128;SDS011;24864;49.940;19.770;2022-12-07T06:11:52;20.98;;;13.02;;
39128;SDS011;24864;49.940;19.770;2022-12-07T06:14:38;20.05;;;11.85;;
39128;SDS011;24864;49.940;19.770;2022-12-07T06:17:08;17.00;;;10.75;;
39128;SDS011;24864;49.940;19.770;2022-12-07T06:19:36;18.20;;;10.93;;
39128;SDS011;24864;49.940;19.770;2022-12-07T06:22:04;15.23;;;11.38;;
39128;SDS011;24864;49.940;19.770;2022-12-07T06:24:34;16.75;;;11.75;;
39128;SDS011;24864;49.940;19.770;2022-12-07T06:27:02;18.27;;;12.30;;
39128;SDS011;24864;49.940;19.770;2022-12-07T06:29:31;20.20;;;13.30;;
39128;SDS011;24864;49.940;19.770;2022-12-07T06:31:59;22.73;;;13.02;;
39128;SDS011;24864;49.940;19.770;2022-12-07T06:34:28;21.85;;;14.13;;
39128;SDS011;24864;49.940;19.770;2022-12-07T06:36:56;23.13;;;15.15;;
39128;SDS011;24864;49.940;19.770;2022-12-07T06:39:25;25.85;;;17.38;;
39128;SDS011;24864;49.940;19.770;2022-12-07T06:41:54;29.38;;;16.75;;
39128;SDS011;24864;49.940;19.770;2022-12-07T06:44:23;34.17;;;19.25;;
39128;SDS011;24864;49.940;19.770;2022-12-07T06:46:52;31.00;;;18.60;;
39128;SDS011;24864;49.940;19.770;2022-12-07T06:49:39;30.52;;;16.38;;
39128;SDS011;24864;49.940;19.770;2022-12-07T06:52:07;27.77;;;15.85;;
39128;SDS011;24864;49.940;19.770;2022-12-07T06:54:35;21.73;;;12.48;;
39128;SDS011;24864;49.940;19.770;2022-12-07T06:57:03;24.90;;;14.50;;
39128;SDS011;24864;49.940;19.770;2022-12-07T06:59:31;20.70;;;13.27;;
39128;SDS011;24864;49.940;19.770;2022-12-07T07:01:59;24.77;;;14.35;;
39128;SDS011;24864;49.940;19.770;2022-12-07T07:04:28;25.73;;;14.88;;
39128;SDS011;24864;49.940;19.770;2022-12-07T07:06:57;28.92;;;15.32;;
39128;SDS011;24864;49.940;19.770;2022-12-07T07:09:26;23.25;;;13.55;;
39128;SDS011;24864;49.940;19.770;2022-12-07T07:11:54;26.98;;;14.25;;
39128;SDS011;24864;49.940;19.770;2022-12-07T07:14:22;24.70;;;15.48;;
39128;SDS011;24864;49.940;19.770;2022-12-07T07:16:49;24.20;;;14.65;;
39128;SDS011;24864;49.940;19.770;2022-12-07T07:19:18;30.08;;;15.45;;
39128;SDS011;24864;49.940;19.770;2022-12-07T07:21:48;29.27;;;14.32;;
39128;SDS011;24864;49.940;19.770;2022-12-07T07:24:17;29.08;;;16.25;;
39128;SDS011;24864;49.940;19.770;2022-12-07T07:26:45;26.73;;;15.98;;
39128;SDS011;24864;49.940;19.770;2022-12-07T07:29:13;28.70;;;17.15;;
39128;SDS011;24864;49.940;19.770;2022-12-07T07:31:41;30.38;;;16.90;;
39128;SDS011;24864;49.940;19.770;2022-12-07T07:34:09;29.85;;;17.10;;
39128;SDS011;24864;49.940;19.770;2022-12-07T07:36:37;29.63;;;17.55;;
39128;SDS011;24864;49.940;19.770;2022-12-07T07:39:05;34.00;;;19.30;;
39128;SDS011;24864;49.940;19.770;2022-12-07T07:41:35;31.40;;;18.95;;
39128;SDS011;24864;49.940;19.770;2022-12-07T07:44:03;30.98;;;18.33;;
39128;SDS011;24864;49.940;19.770;2022-12-07T07:46:31;30.50;;;17.83;;
39128;SDS011;24864;49.940;19.770;2022-12-07T07:49:00;26.35;;;16.15;;
39128;SDS011;24864;49.940;19.770;2022-12-07T07:51:28;23.40;;;14.02;;
39128;SDS011;24864;49.940;19.770;2022-12-07T07:53:56;26.17;;;15.27;;
39128;SDS011;24864;49.940;19.770;2022-12-07T07:56:24;24.33;;;14.88;;
39128;SDS011;24864;49.940;19.770;2022-12-07T07:58:53;26.63;;;15.85;;
39128;SDS011;24864;49.940;19.770;2022-12-07T08:01:22;25.20;;;14.90;;
39128;SDS011;24864;49.940;19.770;2022-12-07T08:03:50;25.08;;;15.07;;
39128;SDS011;24864;49.940;19.770;2022-12-07T08:06:18;24.65;;;15.82;;
39128;SDS011;24864;49.940;19.770;2022-12-07T08:08:46;23.88;;;16.55;;
39128;SDS011;24864;49.940;19.770;2022-12-07T08:11:14;21.65;;;15.70;;
39128;SDS011;24864;49.940;19.770;2022-12-07T08:13:42;25.40;;;15.40;;
39128;SDS011;24864;49.940;19.770;2022-12-07T08:16:14;31.70;;;17.08;;
39128;SDS011;24864;49.940;19.770;2022-12-07T08:18:42;27.90;;;17.27;;
39128;SDS011;24864;49.940;19.770;2022-12-07T08:21:12;26.17;;;16.73;;
39128;SDS011;24864;49.940;19.770;2022-12-07T08:23:41;30.40;;;19.15;;
39128;SDS011;24864;49.940;19.770;2022-12-07T08:26:14;29.08;;;18.50;;
39128;SDS011;24864;49.940;19.770;2022-12-07T08:28:43;30.15;;;18.95;;
39128;SDS011;24864;49.940;19.770;2022-12-07T08:31:14;27.48;;;17.98;;
39128;SDS011;24864;49.940;19.770;2022-12-07T08:36:13;25.85;;;15.05;;
39128;SDS011;24864;49.940;19.770;2022-12-07T08:38:41;26.88;;;17.15;;
39128;SDS011;24864;49.940;19.770;2022-12-07T08:41:29;28.13;;;17.73;;
39128;SDS011;24864;49.940;19.770;2022-12-07T08:43:58;25.85;;;15.10;;
39128;SDS011;24864;49.940;19.770;2022-12-07T08:46:28;22.77;;;12.73;;
39128;SDS011;24864;49.940;19.770;2022-12-07T08:49:04;20.30;;;13.15;;
39128;SDS011;24864;49.940;19.770;2022-12-07T08:51:35;16.85;;;10.63;;
39128;SDS011;24864;49.940;19.770;2022-12-07T08:54:04;17.65;;;11.02;;
39128;SDS011;24864;49.940;19.770;2022-12-07T08:56:35;21.50;;;13.25;;
39128;SDS011;24864;49.940;19.770;2022-12-07T08:59:03;16.67;;;11.80;;
39128;SDS011;24864;49.940;19.770;2022-12-07T09:01:33;17.40;;;11.57;;
39128;SDS011;24864;49.940;19.770;2022-12-07T09:04:01;14.50;;;10.20;;
39128;SDS011;24864;49.940;19.770;2022-12-07T09:06:29;19.55;;;13.45;;
39128;SDS011;24864;49.940;19.770;2022-12-07T09:08:58;18.52;;;12.23;;
39128;SDS011;24864;49.940;19.770;2022-12-07T09:11:28;19.88;;;13.68;;
39128;SDS011;24864;49.940;19.770;2022-12-07T09:13:57;24.55;;;14.98;;
39128;SDS011;24864;49.940;19.770;2022-12-07T09:16:25;25.73;;;15.35;;
39128;SDS011;24864;49.940;19.770;2022-12-07T09:18:54;19.90;;;14.75;;
39128;SDS011;24864;49.940;19.770;2022-12-07T09:21:22;20.13;;;12.80;;
39128;SDS011;24864;49.940;19.770;2022-12-07T09:23:50;16.17;;;12.23;;
39128;SDS011;24864;49.940;19.770;2022-12-07T09:26:18;18.23;;;11.80;;
39128;SDS011;24864;49.940;19.770;2022-12-07T09:28:46;17.92;;;13.07;;
39128;SDS011;24864;49.940;19.770;2022-12-07T09:31:15;17.00;;;12.82;;
39128;SDS011;24864;49.940;19.770;2022-12-07T09:33:56;14.73;;;11.18;;
39128;SDS011;24864;49.940;19.770;2022-12-07T09:36:27;15.98;;;12.50;;
39128;SDS011;24864;49.940;19.770;2022-12-07T09:38:56;16.17;;;10.90;;
39128;SDS011;24864;49.940;19.770;2022-12-07T09:41:24;14.57;;;11.57;;
39128;SDS011;24864;49.940;19.770;2022-12-07T09:43:56;14.50;;;10.15;;
39128;SDS011;24864;49.940;19.770;2022-12-07T09:46:31;17.25;;;11.57;;
39128;SDS011;24864;49.940;19.770;2022-12-07T09:49:05;21.08;;;12.93;;
39128;SDS011;24864;49.940;19.770;2022-12-07T09:51:40;15.77;;;12.25;;
39128;SDS011;24864;49.940;19.770;2022-12-07T09:54:08;15.85;;;12.15;;
39128;SDS011;24864;49.940;19.770;2022-12-07T09:56:39;15.57;;;10.98;;
39128;SDS011;24864;49.940;19.770;2022-12-07T09:59:09;15.93;;;11.57;;
39128;SDS011;24864;49.940;19.770;2022-12-07T10:01:41;12.70;;;9.25;;
39128;SDS011;24864;49.940;19.770;2022-12-07T10:04:12;14.27;;;10.35;;
39128;SDS011;24864;49.940;19.770;2022-12-07T10:06:43;11.75;;;8.48;;
39128;SDS011;24864;49.940;19.770;2022-12-07T10:09:12;14.32;;;10.98;;
39128;SDS011;24864;49.940;19.770;2022-12-07T10:11:58;12.50;;;9.30;;
39128;SDS011;24864;49.940;19.770;2022-12-07T10:14:28;10.45;;;9.27;;
39128;SDS011;24864;49.940;19.770;2022-12-07T10:17:26;10.50;;;8.57;;
39128;SDS011;24864;49.940;19.770;2022-12-07T10:20:16;13.35;;;8.77;;
39128;SDS011;24864;49.940;19.770;2022-12-07T10:22:54;13.98;;;10.57;;
39128;SDS011;24864;49.940;19.770;2022-12-07T10:25:30;17.95;;;9.32;;
39128;SDS011;24864;49.940;19.770;2022-12-07T10:28:01;15.43;;;10.02;;
39128;SDS011;24864;49.940;19.770;2022-12-07T10:30:50;14.23;;;10.98;;
39128;SDS011;24864;49.940;19.770;2022-12-07T10:33:30;25.52;;;15.70;;
39128;SDS011;24864;49.940;19.770;2022-12-07T10:36:16;18.05;;;12.02;;
39128;SDS011;24864;49.940;19.770;2022-12-07T10:38:47;16.65;;;11.55;;
39128;SDS011;24864;49.940;19.770;2022-12-07T10:41:17;15.25;;;10.30;;
39128;SDS011;24864;49.940;19.770;2022-12-07T10:43:49;12.15;;;8.57;;
39128;SDS011;24864;49.940;19.770;2022-12-07T10:52:18;9.30;;;6.72;;
39128;SDS011;24864;49.940;19.770;2022-12-07T10:54:57;8.68;;;7.22;;
39128;SDS011;24864;49.940;19.770;2022-12-07T11:00:13;8.32;;;5.40;;
39128;SDS011;24864;49.940;19.770;2022-12-07T11:02:50;12.55;;;8.00;;
39128;SDS011;24864;49.940;19.770;2022-12-07T11:05:41;10.32;;;7.18;;
39128;SDS011;24864;49.940;19.770;2022-12-07T11:08:20;14.07;;;8.85;;
39128;SDS011;24864;49.940;19.770;2022-12-07T11:10:59;15.73;;;10.85;;
39128;SDS011;24864;49.940;19.770;2022-12-07T11:13:37;14.23;;;9.98;;
39128;SDS011;24864;49.940;19.770;2022-12-07T11:16:15;13.75;;;8.80;;
39128;SDS011;24864;49.940;19.770;2022-12-07T11:18:59;11.45;;;7.97;;
39128;SDS011;24864;49.940;19.770;2022-12-07T11:21:36;10.27;;;7.90;;
39128;SDS011;24864;49.940;19.770;2022-12-07T11:24:14;10.05;;;6.43;;
39128;SDS011;24864;49.940;19.770;2022-12-07T11:26:50;9.82;;;7.07;;
39128;SDS011;24864;49.940;19.770;2022-12-07T11:29:40;11.25;;;7.70;;
39128;SDS011;24864;49.940;19.770;2022-12-07T11:32:34;15.50;;;10.77;;
39128;SDS011;24864;49.940;19.770;2022-12-07T11:35:14;9.85;;;7.47;;
39128;SDS011;24864;49.940;19.770;2022-12-07T11:37:50;25.55;;;16.88;;
39128;SDS011;24864;49.940;19.770;2022-12-07T11:40:27;10.60;;;8.32;;
39128;SDS011;24864;49.940;19.770;2022-12-07T11:43:01;19.63;;;17.23;;
39128;SDS011;24864;49.940;19.770;2022-12-07T11:45:35;19.33;;;12.95;;
39128;SDS011;24864;49.940;19.770;2022-12-07T11:48:10;16.65;;;11.73;;
39128;SDS011;24864;49.940;19.770;2022-12-07T11:50:43;9.77;;;6.82;;
39128;SDS011;24864;49.940;19.770;2022-12-07T11:53:15;14.63;;;9.73;;
39128;SDS011;24864;49.940;19.770;2022-12-07T11:55:48;9.95;;;6.63;;
39128;SDS011;24864;49.940;19.770;2022-12-07T11:58:22;13.93;;;9.65;;
39128;SDS011;24864;49.940;19.770;2022-12-07T12:01:08;8.05;;;6.03;;
39128;SDS011;24864;49.940;19.770;2022-12-07T12:03:44;13.68;;;9.98;;
39128;SDS011;24864;49.940;19.770;2022-12-07T12:06:20;13.35;;;8.40;;
39128;SDS011;24864;49.940;19.770;2022-12-07T12:08:50;6.78;;;5.10;;
39128;SDS011;24864;49.940;19.770;2022-12-07T12:11:49;9.98;;;7.57;;
39128;SDS011;24864;49.940;19.770;2022-12-07T12:14:52;8.85;;;6.47;;
39128;SDS011;24864;49.940;19.770;2022-12-07T12:20:29;7.75;;;5.03;;
39128;SDS011;24864;49.940;19.770;2022-12-07T12:23:05;6.75;;;3.80;;
39128;SDS011;24864;49.940;19.770;2022-12-07T12:25:40;8.63;;;5.70;;
39128;SDS011;24864;49.940;19.770;2022-12-07T12:28:20;10.75;;;5.93;;
39128;SDS011;24864;49.940;19.770;2022-12-07T12:31:05;8.23;;;5.35;;
39128;SDS011;24864;49.940;19.770;2022-12-07T12:33:37;11.95;;;8.20;;
39128;SDS011;24864;49.940;19.770;2022-12-07T12:36:25;10.55;;;6.78;;
39128;SDS011;24864;49.940;19.770;2022-12-07T12:39:08;9.80;;;6.05;;
39128;SDS011;24864;49.940;19.770;2022-12-07T12:41:56;7.97;;;4.75;;
39128;SDS011;24864;49.940;19.770;2022-12-07T12:51:35;14.73;;;7.72;;
39128;SDS011;24864;49.940;19.770;2022-12-07T12:54:10;9.88;;;5.18;;
39128;SDS011;24864;49.940;19.770;2022-12-07T12:56:42;4.75;;;3.63;;
39128;SDS011;24864;49.940;19.770;2022-12-07T12:59:27;6.15;;;4.03;;
39128;SDS011;24864;49.940;19.770;2022-12-07T13:02:08;5.75;;;3.45;;
39128;SDS011;24864;49.940;19.770;2022-12-07T13:04:53;6.18;;;3.72;;
39128;SDS011;24864;49.940;19.770;2022-12-07T13:10:29;9.07;;;5.55;;
39128;SDS011;24864;49.940;19.770;2022-12-07T13:13:03;10.90;;;6.05;;
39128;SDS011;24864;49.940;19.770;2022-12-07T13:15:52;11.52;;;6.20;;
39128;SDS011;24864;49.940;19.770;2022-12-07T13:18:23;9.63;;;5.35;;
39128;SDS011;24864;49.940;19.770;2022-12-07T13:20:53;9.30;;;4.90;;
39128;SDS011;24864;49.940;19.770;2022-12-07T13:23:29;7.70;;;5.70;;
39128;SDS011;24864;49.940;19.770;2022-12-07T13:28:51;9.50;;;6.33;;
39128;SDS011;24864;49.940;19.770;2022-12-07T13:31:32;9.70;;;6.55;;
39128;SDS011;24864;49.940;19.770;2022-12-07T13:34:02;9.70;;;6.55;;
39128;SDS011;24864;49.940;19.770;2022-12-07T13:36:32;10.90;;;6.65;;
39128;SDS011;24864;49.940;19.770;2022-12-07T13:39:16;10.32;;;5.50;;
39128;SDS011;24864;49.940;19.770;2022-12-07T13:41:49;9.63;;;6.60;;
39128;SDS011;24864;49.940;19.770;2022-12-07T13:44:18;12.10;;;7.30;;
39128;SDS011;24864;49.940;19.770;2022-12-07T13:46:49;16.25;;;8.23;;
39128;SDS011;24864;49.940;19.770;2022-12-07T13:49:23;9.82;;;6.47;;
39128;SDS011;24864;49.940;19.770;2022-12-07T13:51:52;10.05;;;6.57;;
39128;SDS011;24864;49.940;19.770;2022-12-07T13:54:22;10.50;;;5.97;;
39128;SDS011;24864;49.940;19.770;2022-12-07T13:56:50;7.10;;;4.68;;
39128;SDS011;24864;49.940;19.770;2022-12-07T13:59:20;8.23;;;5.65;;
39128;SDS011;24864;49.940;19.770;2022-12-07T14:01:50;9.93;;;5.00;;
39128;SDS011;24864;49.940;19.770;2022-12-07T14:04:30;8.10;;;4.32;;
39128;SDS011;24864;49.940;19.770;2022-12-07T14:07:00;9.10;;;5.47;;
39128;SDS011;24864;49.940;19.770;2022-12-07T14:09:54;8.05;;;4.82;;
39128;SDS011;24864;49.940;19.770;2022-12-07T14:12:24;14.38;;;5.65;;
39128;SDS011;24864;49.940;19.770;2022-12-07T14:14:53;9.07;;;4.75;;
39128;SDS011;24864;49.940;19.770;2022-12-07T14:17:23;78.88;;;38.65;;
39128;SDS011;24864;49.940;19.770;2022-12-07T14:19:53;24.00;;;16.35;;
39128;SDS011;24864;49.940;19.770;2022-12-07T14:22:32;17.92;;;16.10;;
39128;SDS011;24864;49.940;19.770;2022-12-07T14:25:16;16.20;;;13.40;;
39128;SDS011;24864;49.940;19.770;2022-12-07T14:27:48;23.70;;;21.27;;
39128;SDS011;24864;49.940;19.770;2022-12-07T14:30:23;13.80;;;12.23;;
39128;SDS011;24864;49.940;19.770;2022-12-07T14:32:54;25.67;;;21.05;;
39128;SDS011;24864;49.940;19.770;2022-12-07T14:35:25;15.90;;;9.30;;
39128;SDS011;24864;49.940;19.770;2022-12-07T14:37:54;9.50;;;6.07;;
39128;SDS011;24864;49.940;19.770;2022-12-07T14:40:24;8.60;;;6.50;;
39128;SDS011;24864;49.940;19.770;2022-12-07T14:42:54;11.02;;;6.80;;
39128;SDS011;24864;49.940;19.770;2022-12-07T14:45:27;25.27;;;15.07;;
39128;SDS011;24864;49.940;19.770;2022-12-07T14:47:56;30.48;;;17.30;;
39128;SDS011;24864;49.940;19.770;2022-12-07T14:50:44;22.75;;;13.55;;
39128;SDS011;24864;49.940;19.770;2022-12-07T14:53:36;33.80;;;18.40;;
39128;SDS011;24864;49.940;19.770;2022-12-07T14:56:09;49.50;;;23.38;;
39128;SDS011;24864;49.940;19.770;2022-12-07T14:58:37;54.75;;;27.98;;
39128;SDS011;24864;49.940;19.770;2022-12-07T15:01:05;41.28;;;21.98;;
39128;SDS011;24864;49.940;19.770;2022-12-07T15:03:33;26.55;;;15.88;;
39128;SDS011;24864;49.940;19.770;2022-12-07T15:06:04;21.17;;;14.05;;
39128;SDS011;24864;49.940;19.770;2022-12-07T15:08:33;19.00;;;11.40;;
39128;SDS011;24864;49.940;19.770;2022-12-07T15:11:02;16.25;;;9.48;;
39128;SDS011;24864;49.940;19.770;2022-12-07T15:13:31;15.02;;;10.43;;
39128;SDS011;24864;49.940;19.770;2022-12-07T15:16:18;17.48;;;9.68;;